createdAt,value
2023-04-06T00:00:19.170Z,2.27
2023-04-06T00:02:45.997Z,2.11
2023-04-06T00:05:12.800Z,1.92
2023-04-06T00:07:39.549Z,2.18
2023-04-06T00:10:06.694Z,1.87
2023-04-06T00:12:33.445Z,2.16
2023-04-06T00:15:00.175Z,2.15
2023-04-06T00:17:27.280Z,2.32
2023-04-06T00:19:54.017Z,2.05
2023-04-06T00:22:20.825Z,2.31
2023-04-06T00:24:47.481Z,1.80
2023-04-06T00:27:14.211Z,2.10
2023-04-06T00:29:41.121Z,2.00
2023-04-06T00:32:07.880Z,2.30
2023-04-06T00:34:34.579Z,2.14
2023-04-06T00:37:01.389Z,1.92
2023-04-06T00:39:28.125Z,1.94
2023-04-06T00:41:54.927Z,1.81
2023-04-06T00:44:21.841Z,1.97
2023-04-06T00:46:48.507Z,2.14
2023-04-06T00:49:15.242Z,1.32
2023-04-06T00:51:41.996Z,1.78
2023-04-06T00:54:08.724Z,1.98
2023-04-06T00:56:36.580Z,1.87
2023-04-06T00:59:03.343Z,1.80
2023-04-06T01:01:30.143Z,0.95
2023-04-06T01:03:56.893Z,1.13
2023-04-06T01:06:23.601Z,0.75
2023-04-06T01:08:50.345Z,1.19
2023-04-06T01:11:17.025Z,1.30
2023-04-06T01:13:43.765Z,1.27
2023-04-06T01:16:11.126Z,1.02
2023-04-06T01:18:38.646Z,1.15
2023-04-06T01:21:05.386Z,0.78
2023-04-06T01:23:32.055Z,0.68
2023-04-06T01:25:58.791Z,1.03
2023-04-06T01:28:25.463Z,0.96
2023-04-06T01:30:52.163Z,1.82
2023-04-06T01:33:18.852Z,1.48
2023-04-06T01:35:45.585Z,0.83
2023-04-06T01:38:12.312Z,1.00
2023-04-06T01:40:39.042Z,1.60
2023-04-06T01:43:05.704Z,1.03
2023-04-06T01:45:32.469Z,1.22
2023-04-06T01:47:59.219Z,1.34
2023-04-06T01:50:25.913Z,1.19
2023-04-06T01:52:52.595Z,1.23
2023-04-06T01:55:19.359Z,1.18
2023-04-06T01:57:46.030Z,1.29
2023-04-06T02:00:13.121Z,1.32
2023-04-06T02:02:39.918Z,1.45
2023-04-06T02:05:06.901Z,1.34
2023-04-06T02:07:33.773Z,1.32
2023-04-06T02:10:00.482Z,1.32
2023-04-06T02:12:27.175Z,1.08
2023-04-06T02:14:53.904Z,0.69
2023-04-06T02:17:20.676Z,0.80
2023-04-06T02:19:47.381Z,1.08
2023-04-06T02:22:14.094Z,0.58
2023-04-06T02:24:41.314Z,0.74
2023-04-06T02:27:08.011Z,0.53
2023-04-06T02:29:34.710Z,0.42
2023-04-06T02:32:01.506Z,0.91
2023-04-06T02:34:28.297Z,1.02
2023-04-06T02:36:55.042Z,0.96
2023-04-06T02:39:21.749Z,0.93
2023-04-06T02:41:48.445Z,0.93
2023-04-06T02:44:15.488Z,1.17
2023-04-06T02:46:42.166Z,1.31
2023-04-06T02:49:09.245Z,1.12
2023-04-06T02:51:36.320Z,0.91
2023-04-06T02:54:03.025Z,1.04
2023-04-06T02:56:29.679Z,1.04
2023-04-06T02:58:56.423Z,0.79
2023-04-06T03:01:23.182Z,0.71
2023-04-06T03:03:49.984Z,0.76
2023-04-06T03:06:16.794Z,0.50
2023-04-06T03:08:43.484Z,0.67
2023-04-06T03:11:10.162Z,0.38
2023-04-06T03:13:37.519Z,-0.14
2023-04-06T03:16:04.386Z,0.21
2023-04-06T03:18:31.078Z,0.37
2023-04-06T03:20:57.828Z,0.33
2023-04-06T03:23:24.546Z,-0.14
2023-04-06T03:25:51.339Z,-0.22
2023-04-06T03:28:18.051Z,-0.04
2023-04-06T03:30:44.789Z,-0.38
2023-04-06T03:33:11.682Z,-0.26
2023-04-06T03:35:38.453Z,-0.27
2023-04-06T03:38:05.645Z,-0.58
2023-04-06T03:40:32.529Z,-0.33
2023-04-06T03:42:59.284Z,-0.10
2023-04-06T03:45:26.168Z,-0.12
2023-04-06T03:47:52.898Z,-0.25
2023-04-06T03:50:19.602Z,-0.23
2023-04-06T03:52:46.288Z,-0.40
2023-04-06T03:55:12.969Z,-0.49
2023-04-06T03:57:39.717Z,-0.31
2023-04-06T04:00:06.998Z,-0.20
2023-04-06T04:02:33.780Z,-0.91
2023-04-06T04:05:00.676Z,-0.47
2023-04-06T04:07:27.612Z,-0.31
2023-04-06T04:09:54.266Z,-0.66
2023-04-06T04:12:21.016Z,-0.43
2023-04-06T04:14:47.761Z,-0.33
2023-04-06T04:17:14.474Z,0.05
2023-04-06T04:19:41.550Z,0.24
2023-04-06T04:22:08.274Z,-0.04
2023-04-06T04:24:34.999Z,-0.24
2023-04-06T04:27:05.880Z,-0.01
2023-04-06T04:29:32.568Z,-0.26
2023-04-06T04:31:59.288Z,0.27
2023-04-06T04:34:26.417Z,0.29
2023-04-06T04:36:53.466Z,0.64
2023-04-06T04:39:20.420Z,1.03
2023-04-06T04:41:47.119Z,1.03
2023-04-06T04:44:13.796Z,1.46
2023-04-06T04:46:40.491Z,0.92
2023-04-06T04:49:07.256Z,1.68
2023-04-06T04:51:34.951Z,1.97
2023-04-06T04:54:01.619Z,2.57
2023-04-06T04:56:28.779Z,2.80
2023-04-06T04:58:55.615Z,2.85
2023-04-06T05:01:22.388Z,3.09
2023-04-06T05:03:49.216Z,3.20
2023-04-06T05:06:16.162Z,2.86
2023-04-06T05:08:43.211Z,3.06
2023-04-06T05:11:10.225Z,3.30
2023-04-06T05:13:37.124Z,3.22
2023-04-06T05:16:03.922Z,3.02
2023-04-06T05:18:30.750Z,2.66
2023-04-06T05:20:57.427Z,2.94
2023-04-06T05:23:24.110Z,3.91
2023-04-06T05:25:50.861Z,4.23
2023-04-06T05:28:17.743Z,4.83
2023-04-06T05:30:45.194Z,5.64
2023-04-06T05:33:12.145Z,6.31
2023-04-06T05:35:38.889Z,7.17
2023-04-06T05:38:07.214Z,7.98
2023-04-06T05:40:33.904Z,8.45
2023-04-06T05:43:00.799Z,8.44
2023-04-06T05:45:27.555Z,8.21
2023-04-06T05:47:54.296Z,7.90
2023-04-06T05:50:21.125Z,8.82
2023-04-06T05:52:47.851Z,8.35
2023-04-06T05:55:14.544Z,7.56
2023-04-06T05:58:12.423Z,8.56
2023-04-06T06:00:39.147Z,8.51
2023-04-06T06:03:07.202Z,8.12
2023-04-06T06:05:34.070Z,8.61
2023-04-06T06:08:03.402Z,9.14
2023-04-06T06:10:30.158Z,9.59
2023-04-06T06:12:56.823Z,10.05
2023-04-06T06:15:23.544Z,9.65
2023-04-06T06:17:50.289Z,9.90
2023-04-06T06:20:17.132Z,10.08
2023-04-06T06:22:43.798Z,9.36
2023-04-06T06:25:10.478Z,9.12
2023-04-06T06:27:37.694Z,9.01
2023-04-06T06:30:04.632Z,9.46
2023-04-06T06:32:31.402Z,9.60
2023-04-06T06:34:58.123Z,8.60
2023-04-06T06:37:24.855Z,9.07
2023-04-06T06:39:51.579Z,9.09
2023-04-06T06:42:18.310Z,8.56
2023-04-06T06:44:45.002Z,8.59
2023-04-06T06:47:11.728Z,8.35
2023-04-06T06:49:38.445Z,8.39
2023-04-06T06:52:05.128Z,8.05
2023-04-06T06:54:31.839Z,8.30
2023-04-06T06:56:58.572Z,7.88
2023-04-06T06:59:25.266Z,8.35
2023-04-06T07:01:51.983Z,8.41
2023-04-06T07:04:18.671Z,8.49
2023-04-06T07:06:45.374Z,8.49
2023-04-06T07:09:12.155Z,8.49
2023-04-06T07:11:38.819Z,8.05
2023-04-06T07:14:06.048Z,9.10
2023-04-06T07:16:32.835Z,9.27
2023-04-06T07:18:59.624Z,9.76
2023-04-06T07:21:26.411Z,9.56
2023-04-06T07:23:53.173Z,9.06
2023-04-06T07:26:19.913Z,8.65
2023-04-06T07:28:46.677Z,9.56
2023-04-06T07:31:13.345Z,9.81
2023-04-06T07:33:40.051Z,9.83
2023-04-06T07:36:06.827Z,8.93
2023-04-06T07:38:33.609Z,8.39
2023-04-06T07:41:00.398Z,8.05
2023-04-06T07:43:27.270Z,7.38
2023-04-06T07:45:54.999Z,7.45
2023-04-06T07:48:21.737Z,7.43
2023-04-06T07:50:48.398Z,7.49
2023-04-06T07:53:15.090Z,7.43
2023-04-06T07:55:41.795Z,7.85
2023-04-06T07:58:09.011Z,7.17
2023-04-06T08:00:35.736Z,7.62
2023-04-06T08:03:02.503Z,7.52
2023-04-06T08:05:29.282Z,7.66
2023-04-06T08:07:56.010Z,8.27
2023-04-06T08:10:22.777Z,8.72
2023-04-06T08:12:49.473Z,7.60
2023-04-06T08:15:16.185Z,7.88
2023-04-06T08:17:42.892Z,8.64
2023-04-06T08:20:09.788Z,9.39
2023-04-06T08:22:36.487Z,9.34
2023-04-06T08:25:03.214Z,9.11
2023-04-06T08:27:29.918Z,8.06
2023-04-06T08:29:56.648Z,8.38
2023-04-06T08:32:23.356Z,8.30
2023-04-06T08:34:50.018Z,8.48
2023-04-06T08:37:16.762Z,7.88
2023-04-06T08:39:43.525Z,9.01
2023-04-06T08:42:15.650Z,8.58
2023-04-06T08:44:42.413Z,8.75
2023-04-06T08:47:09.097Z,7.65
2023-04-06T08:49:35.943Z,7.83
2023-04-06T08:52:02.669Z,7.44
2023-04-06T08:54:29.380Z,8.18
2023-04-06T08:56:57.583Z,8.27
2023-04-06T08:59:24.929Z,8.30
2023-04-06T09:01:51.704Z,8.11
2023-04-06T09:04:18.870Z,8.53
2023-04-06T09:06:46.005Z,7.79
2023-04-06T09:09:12.974Z,8.64
2023-04-06T09:12:04.573Z,8.92
2023-04-06T09:14:38.274Z,8.67
2023-04-06T09:17:05.055Z,9.18
2023-04-06T09:19:31.796Z,9.62
2023-04-06T09:22:05.641Z,10.17
2023-04-06T09:24:44.807Z,10.02
2023-04-06T09:27:11.489Z,9.81
2023-04-06T09:29:38.183Z,8.96
2023-04-06T09:32:05.748Z,8.58
2023-04-06T09:34:32.617Z,9.10
2023-04-06T09:36:59.737Z,9.08
2023-04-06T09:39:27.554Z,8.60
2023-04-06T09:41:55.495Z,8.79
2023-04-06T09:44:22.458Z,9.32
2023-04-06T09:46:59.035Z,9.36
2023-04-06T09:49:28.731Z,9.74
2023-04-06T09:51:57.271Z,9.91
2023-04-06T09:54:24.273Z,10.04
2023-04-06T09:57:12.602Z,10.28
2023-04-06T09:59:52.345Z,10.11
2023-04-06T10:02:34.660Z,10.32
2023-04-06T10:05:04.248Z,9.96
2023-04-06T10:07:31.082Z,9.77
2023-04-06T10:09:57.832Z,9.31
2023-04-06T10:12:24.570Z,9.74
2023-04-06T10:14:51.396Z,9.70
2023-04-06T10:17:18.108Z,9.08
2023-04-06T10:19:55.409Z,8.99
2023-04-06T10:22:33.926Z,9.29
2023-04-06T10:25:00.735Z,8.61
2023-04-06T10:27:30.990Z,8.73
2023-04-06T10:30:06.802Z,9.03
2023-04-06T10:32:37.447Z,9.38
2023-04-06T10:35:10.717Z,9.78
2023-04-06T10:38:03.440Z,8.77
2023-04-06T10:40:30.435Z,9.24
2023-04-06T10:42:58.017Z,9.61
2023-04-06T10:45:25.721Z,9.25
2023-04-06T10:47:57.350Z,9.23
2023-04-06T10:50:24.281Z,9.36
2023-04-06T10:53:00.566Z,8.54
2023-04-06T10:55:30.391Z,8.81
2023-04-06T10:57:57.221Z,8.56
2023-04-06T11:00:24.247Z,9.50
2023-04-06T11:02:51.066Z,9.45
2023-04-06T11:05:18.031Z,9.65
2023-04-06T11:07:45.338Z,9.58
2023-04-06T11:10:16.833Z,9.36
2023-04-06T11:12:45.258Z,8.80
2023-04-06T11:15:12.114Z,8.51
2023-04-06T11:17:38.893Z,8.67
2023-04-06T11:20:06.011Z,9.42
2023-04-06T11:22:32.775Z,9.70
2023-04-06T11:25:06.150Z,9.34
2023-04-06T11:27:33.332Z,9.38
2023-04-06T11:30:01.059Z,9.53
2023-04-06T11:32:27.761Z,9.61
2023-04-06T11:34:54.613Z,9.73
2023-04-06T11:37:21.384Z,10.03
2023-04-06T11:39:50.476Z,9.32
2023-04-06T11:42:26.584Z,8.67
2023-04-06T11:44:54.902Z,8.97
2023-04-06T11:47:23.538Z,9.29
2023-04-06T11:49:51.343Z,10.20
2023-04-06T11:52:18.027Z,10.75
2023-04-06T11:54:44.728Z,11.14
2023-04-06T11:57:11.467Z,10.52
2023-04-06T11:59:38.249Z,9.85
2023-04-06T12:02:05.190Z,9.72
2023-04-06T12:04:32.240Z,10.03
2023-04-06T12:06:59.127Z,10.54
2023-04-06T12:09:25.917Z,10.32
2023-04-06T12:11:52.679Z,10.58
2023-04-06T12:14:19.412Z,10.63
2023-04-06T12:16:46.296Z,10.17
2023-04-06T12:19:12.976Z,10.04
2023-04-06T12:21:39.639Z,10.56
2023-04-06T12:24:06.629Z,10.67
2023-04-06T12:26:33.825Z,10.29
2023-04-06T12:29:10.256Z,10.15
2023-04-06T12:31:37.258Z,10.63
2023-04-06T12:34:04.544Z,10.33
2023-04-06T12:36:32.316Z,10.28
2023-04-06T12:38:59.631Z,10.71
2023-04-06T12:41:26.366Z,10.12
2023-04-06T12:43:53.144Z,9.75
2023-04-06T12:46:19.951Z,9.51
2023-04-06T12:48:47.394Z,10.16
2023-04-06T12:51:14.087Z,10.63
2023-04-06T12:53:41.128Z,10.27
2023-04-06T12:56:14.720Z,9.42
2023-04-06T12:58:42.996Z,9.06
2023-04-06T13:01:10.333Z,9.31
2023-04-06T13:03:37.379Z,9.35
2023-04-06T13:06:04.200Z,9.56
2023-04-06T13:08:31.057Z,10.00
2023-04-06T13:10:57.819Z,10.10
2023-04-06T13:13:25.488Z,10.35
2023-04-06T13:15:52.849Z,10.34
2023-04-06T13:18:19.787Z,10.19
2023-04-06T13:20:47.721Z,10.59
2023-04-06T13:23:14.546Z,10.68
2023-04-06T13:25:41.285Z,11.05
2023-04-06T13:28:08.345Z,10.84
2023-04-06T13:30:35.197Z,10.92
2023-04-06T13:33:01.998Z,10.87
2023-04-06T13:35:28.731Z,10.87
2023-04-06T13:37:55.428Z,10.76
2023-04-06T13:40:22.129Z,10.88
2023-04-06T13:42:48.845Z,10.41
2023-04-06T13:45:15.826Z,10.28
2023-04-06T13:47:42.584Z,10.23
2023-04-06T13:50:09.483Z,10.39
2023-04-06T13:52:37.234Z,10.20
2023-04-06T13:55:03.980Z,10.49
2023-04-06T13:57:31.246Z,10.20
2023-04-06T13:59:57.930Z,9.91
2023-04-06T14:02:28.498Z,9.75
2023-04-06T14:04:55.665Z,9.38
2023-04-06T14:07:24.619Z,9.48
2023-04-06T14:09:51.403Z,9.03
2023-04-06T14:12:18.077Z,9.37
2023-04-06T14:14:45.013Z,9.90
2023-04-06T14:17:11.732Z,10.29
2023-04-06T14:19:38.814Z,9.90
2023-04-06T14:22:05.833Z,9.89
2023-04-06T14:24:32.637Z,9.99
2023-04-06T14:26:59.337Z,10.06
2023-04-06T14:29:26.204Z,9.58
2023-04-06T14:31:52.886Z,9.81
2023-04-06T14:34:19.564Z,9.55
2023-04-06T14:36:46.833Z,9.67
2023-04-06T14:39:13.614Z,9.56
2023-04-06T14:41:40.894Z,9.80
2023-04-06T14:44:07.925Z,9.90
2023-04-06T14:46:34.661Z,10.17
2023-04-06T14:49:01.487Z,9.86
2023-04-06T14:51:30.909Z,10.39
2023-04-06T14:53:57.764Z,10.40
2023-04-06T14:56:24.921Z,10.19
2023-04-06T14:58:54.975Z,10.18
2023-04-06T15:01:22.010Z,9.47
2023-04-06T15:03:49.014Z,9.25
2023-04-06T15:06:20.630Z,9.18
2023-04-06T15:08:47.806Z,9.68
2023-04-06T15:11:14.506Z,9.09
2023-04-06T15:13:41.182Z,9.49
2023-04-06T15:16:08.124Z,9.02
2023-04-06T15:18:35.147Z,9.04
2023-04-06T15:21:02.026Z,9.05
2023-04-06T15:23:31.565Z,9.12
2023-04-06T15:25:58.855Z,8.50
2023-04-06T15:28:25.639Z,8.50
2023-04-06T15:30:52.613Z,8.92
2023-04-06T15:33:20.651Z,8.57
2023-04-06T15:35:47.625Z,8.88
2023-04-06T15:38:14.433Z,9.21
2023-04-06T15:40:47.672Z,9.18
2023-04-06T15:43:14.571Z,9.39
2023-04-06T15:45:41.883Z,9.00
2023-04-06T15:48:08.671Z,9.07
2023-04-06T15:50:36.084Z,8.99
2023-04-06T15:53:02.765Z,8.94
2023-04-06T15:55:29.446Z,8.89
2023-04-06T15:57:56.131Z,8.88
2023-04-06T16:00:22.956Z,8.47
2023-04-06T16:02:49.861Z,8.80
2023-04-06T16:05:16.696Z,9.15
2023-04-06T16:07:43.349Z,8.75
2023-04-06T16:10:10.570Z,8.47
2023-04-06T16:12:37.315Z,7.83
2023-04-06T16:15:04.143Z,7.72
2023-04-06T16:17:30.842Z,7.73
2023-04-06T16:19:57.522Z,7.82
2023-04-06T16:22:24.193Z,7.87
2023-04-06T16:24:50.971Z,7.55
2023-04-06T16:27:17.874Z,7.23
2023-04-06T16:29:44.578Z,7.13
2023-04-06T16:32:12.354Z,7.14
2023-04-06T16:34:39.149Z,7.37
2023-04-06T16:37:05.907Z,7.49
2023-04-06T16:39:32.596Z,7.26
2023-04-06T16:42:00.123Z,7.44
2023-04-06T16:44:29.403Z,7.62
2023-04-06T16:46:56.709Z,7.28
2023-04-06T16:49:23.377Z,7.32
2023-04-06T16:51:50.121Z,6.92
2023-04-06T16:54:17.140Z,7.14
2023-04-06T16:56:43.884Z,7.20
2023-04-06T16:59:10.895Z,7.18
2023-04-06T17:01:37.747Z,7.37
2023-04-06T17:04:04.654Z,7.43
2023-04-06T17:06:31.426Z,7.09
2023-04-06T17:09:00.016Z,7.37
2023-04-06T17:11:32.810Z,7.13
2023-04-06T17:14:10.163Z,7.33
2023-04-06T17:16:36.844Z,7.23
2023-04-06T17:19:03.553Z,7.23
2023-04-06T17:21:31.091Z,7.04
2023-04-06T17:23:57.759Z,7.00
2023-04-06T17:26:25.090Z,7.03
2023-04-06T17:28:51.759Z,7.01
2023-04-06T17:31:18.536Z,6.87
2023-04-06T17:33:45.373Z,7.05
2023-04-06T17:36:12.592Z,7.06
2023-04-06T17:38:43.499Z,7.09
2023-04-06T17:41:10.826Z,7.28
2023-04-06T17:43:37.548Z,7.16
2023-04-06T17:46:04.326Z,7.01
2023-04-06T17:48:31.814Z,6.84
2023-04-06T17:50:58.466Z,6.87
2023-04-06T17:53:25.114Z,6.75
2023-04-06T17:55:51.806Z,7.09
2023-04-06T17:58:18.514Z,6.79
2023-04-06T18:00:45.196Z,6.86
2023-04-06T18:03:11.885Z,7.08
2023-04-06T18:05:39.756Z,6.72
2023-04-06T18:08:06.575Z,6.78
2023-04-06T18:10:37.056Z,6.59
2023-04-06T18:13:03.742Z,6.39
2023-04-06T18:15:31.534Z,6.23
2023-04-06T18:17:58.298Z,5.97
2023-04-06T18:20:25.090Z,6.25
2023-04-06T18:22:52.560Z,5.76
2023-04-06T18:25:19.268Z,5.60
2023-04-06T18:27:46.185Z,5.73
2023-04-06T18:30:14.226Z,5.78
2023-04-06T18:32:41.017Z,5.78
2023-04-06T18:35:09.381Z,5.55
2023-04-06T18:37:36.814Z,5.70
2023-04-06T18:40:04.286Z,5.37
2023-04-06T18:42:31.035Z,5.46
2023-04-06T18:44:57.712Z,5.44
2023-04-06T18:47:24.400Z,5.41
2023-04-06T18:49:51.254Z,5.47
2023-04-06T18:52:18.043Z,5.76
2023-04-06T18:54:44.709Z,5.73
2023-04-06T18:57:12.533Z,5.79
2023-04-06T18:59:39.244Z,6.42
2023-04-06T19:02:06.188Z,5.80
2023-04-06T19:04:33.054Z,6.02
2023-04-06T19:07:01.038Z,5.87
2023-04-06T19:09:28.474Z,5.80
2023-04-06T19:11:55.108Z,5.88
2023-04-06T19:14:21.988Z,5.42
2023-04-06T19:16:52.596Z,5.40
2023-04-06T19:19:19.720Z,5.32
2023-04-06T19:21:46.644Z,5.30
2023-04-06T19:24:13.321Z,5.07
2023-04-06T19:26:39.967Z,5.01
2023-04-06T19:29:06.660Z,5.14
2023-04-06T19:31:33.392Z,4.67
2023-04-06T19:34:00.128Z,4.58
2023-04-06T19:36:26.860Z,4.64
2023-04-06T19:38:53.556Z,4.66
2023-04-06T19:41:21.524Z,4.68
2023-04-06T19:43:48.241Z,4.89
2023-04-06T19:46:15.690Z,4.83
2023-04-06T19:48:42.523Z,5.12
2023-04-06T19:51:09.297Z,4.95
2023-04-06T19:53:36.792Z,4.86
2023-04-06T19:56:03.439Z,4.93
2023-04-06T19:58:30.125Z,4.72
2023-04-06T20:00:56.813Z,4.72
2023-04-06T20:03:23.615Z,5.21
2023-04-06T20:05:50.487Z,4.65
2023-04-06T20:08:17.192Z,4.82
2023-04-06T20:10:43.911Z,4.50
2023-04-06T20:13:10.589Z,4.73
2023-04-06T20:15:37.296Z,4.76
2023-04-06T20:18:04.074Z,5.01
2023-04-06T20:20:31.108Z,5.05
2023-04-06T20:22:57.779Z,4.87
2023-04-06T20:25:24.491Z,4.71
2023-04-06T20:27:52.110Z,4.79
2023-04-06T20:30:18.779Z,4.75
2023-04-06T20:32:45.629Z,5.12
2023-04-06T20:35:12.415Z,5.37
2023-04-06T20:37:39.283Z,4.96
2023-04-06T20:40:06.215Z,5.00
2023-04-06T20:42:32.873Z,5.19
2023-04-06T20:44:59.653Z,4.89
2023-04-06T20:47:27.352Z,4.88
2023-04-06T20:49:54.237Z,4.98
2023-04-06T20:52:21.100Z,4.93
2023-04-06T20:54:48.609Z,5.08
2023-04-06T20:57:15.608Z,4.77
2023-04-06T20:59:42.358Z,4.45
2023-04-06T21:02:09.112Z,4.52
2023-04-06T21:04:36.063Z,4.99
2023-04-06T21:07:09.204Z,4.62
2023-04-06T21:09:36.582Z,4.78
2023-04-06T21:12:03.785Z,4.79
2023-04-06T21:14:30.692Z,4.85
2023-04-06T21:16:58.165Z,4.88
2023-04-06T21:19:24.952Z,4.61
2023-04-06T21:21:51.785Z,4.62
2023-04-06T21:24:18.797Z,4.62
2023-04-06T21:26:45.884Z,4.58
2023-04-06T21:29:12.563Z,4.64
2023-04-06T21:31:42.086Z,4.57
2023-04-06T21:34:12.278Z,4.66
2023-04-06T21:36:39.477Z,4.88
2023-04-06T21:39:06.341Z,4.97
2023-04-06T21:41:33.520Z,5.05
2023-04-06T21:44:00.196Z,5.11
2023-04-06T21:46:26.901Z,4.95
2023-04-06T21:48:53.626Z,5.03
2023-04-06T21:51:20.663Z,4.97
2023-04-06T21:53:47.359Z,4.95
2023-04-06T21:56:14.244Z,5.01
2023-04-06T21:58:41.904Z,4.64
2023-04-06T22:01:11.740Z,4.70
2023-04-06T22:03:39.058Z,4.69
2023-04-06T22:06:06.556Z,4.69
2023-04-06T22:08:34.350Z,4.83
2023-04-06T22:11:01.243Z,4.78
2023-04-06T22:13:28.401Z,4.56
2023-04-06T22:15:55.431Z,4.76
2023-04-06T22:18:22.317Z,4.85
2023-04-06T22:20:49.028Z,4.49
2023-04-06T22:23:15.758Z,4.62
2023-04-06T22:25:42.384Z,4.62
2023-04-06T22:28:09.201Z,4.68
2023-04-06T22:30:35.899Z,4.60
2023-04-06T22:33:02.551Z,4.67
2023-04-06T22:35:29.249Z,4.75
2023-04-06T22:37:55.989Z,4.90
2023-04-06T22:40:23.143Z,4.74
2023-04-06T22:42:49.796Z,4.94
2023-04-06T22:45:16.515Z,5.09
2023-04-06T22:47:43.937Z,5.21
2023-04-06T22:50:10.915Z,5.05
2023-04-06T22:52:37.750Z,4.86
2023-04-06T22:55:04.857Z,5.37
2023-04-06T22:57:31.660Z,5.03
2023-04-06T22:59:58.412Z,4.75
2023-04-06T23:02:25.114Z,4.55
2023-04-06T23:04:51.810Z,4.62
2023-04-06T23:07:18.503Z,4.86
2023-04-06T23:09:45.201Z,4.75
2023-04-06T23:12:12.015Z,4.87
2023-04-06T23:14:38.686Z,4.86
2023-04-06T23:17:05.645Z,4.71
2023-04-06T23:19:32.512Z,4.87
2023-04-06T23:21:59.991Z,4.98
2023-04-06T23:24:27.699Z,5.08
2023-04-06T23:26:54.389Z,5.08
2023-04-06T23:29:21.057Z,4.68
2023-04-06T23:31:47.736Z,5.10
2023-04-06T23:34:14.458Z,4.47
2023-04-06T23:36:41.181Z,4.74
2023-04-06T23:39:07.908Z,4.72
2023-04-06T23:41:34.599Z,4.69
2023-04-06T23:44:01.296Z,4.43
2023-04-06T23:46:28.070Z,4.93
2023-04-06T23:48:54.923Z,4.93
2023-04-06T23:51:21.765Z,4.76
2023-04-06T23:53:48.462Z,4.70
2023-04-06T23:56:15.136Z,4.87
2023-04-06T23:58:41.845Z,4.77
